Time;durP1;ratioP1;P1;durP2;ratioP2;P2;SDS_P1;SDS_P2;PMS_P1;PMS_P2;Temp;Humidity;BMP_temperature;BMP_pressure;BME280_temperature;BME280_humidity;BME280_pressure;Samples;Min_cycle;Max_cycle;Signal;HPM_P1;HPM_P2
2022/03/01 00:02:14;;;;;;;21.80;9.37;;;2.70;55.80;;;;;;4967401;28;20206;-73
2022/03/01 00:04:39;;;;;;;16.70;8.73;;;2.70;56.00;;;;;;4974134;28;20187;-75
2022/03/01 00:07:07;;;;;;;17.57;9.10;;;2.70;55.80;;;;;;4984575;28;20217;-74
2022/03/01 00:09:34;;;;;;;14.55;7.75;;;2.70;56.20;;;;;;4969844;28;20262;-76
2022/03/01 00:11:59;;;;;;;18.03;8.63;;;2.60;56.50;;;;;;4972469;28;20654;-76
2022/03/01 00:14:25;;;;;;;16.47;8.73;;;2.50;56.90;;;;;;4981224;28;20499;-75
2022/03/01 00:16:51;;;;;;;19.97;8.90;;;2.50;56.90;;;;;;4968283;28;20447;-77
2022/03/01 00:19:17;;;;;;;18.60;8.47;;;2.40;57.00;;;;;;4965047;28;20250;-74
2022/03/01 00:21:42;;;;;;;20.17;8.97;;;2.40;57.60;;;;;;4961889;28;20176;-73
2022/03/01 00:24:08;;;;;;;23.97;9.40;;;2.40;57.40;;;;;;4966970;28;20187;-75
2022/03/01 00:26:34;;;;;;;21.40;9.33;;;2.30;57.60;;;;;;4965372;28;20175;-75
2022/03/01 00:28:59;;;;;;;18.63;9.87;;;2.30;57.80;;;;;;4974060;28;20257;-75
2022/03/01 00:31:25;;;;;;;21.87;8.30;;;2.30;57.80;;;;;;4967654;28;20176;-74
2022/03/01 00:33:51;;;;;;;26.13;9.17;;;2.30;58.40;;;;;;4971256;28;20665;-75
2022/03/01 00:36:17;;;;;;;20.30;9.80;;;2.30;58.80;;;;;;4966686;28;20230;-75
2022/03/01 00:38:42;;;;;;;20.73;8.70;;;2.20;59.10;;;;;;4968494;28;20208;-77
2022/03/01 00:41:08;;;;;;;18.07;8.50;;;2.20;59.20;;;;;;4968881;28;20207;-75
2022/03/01 00:43:34;;;;;;;21.13;9.37;;;2.10;59.60;;;;;;4975309;28;20207;-74
2022/03/01 00:46:00;;;;;;;17.33;8.90;;;2.00;59.90;;;;;;4975350;28;20183;-75
2022/03/01 00:48:25;;;;;;;19.80;9.13;;;2.00;60.30;;;;;;4970166;28;20630;-77
2022/03/01 00:50:51;;;;;;;17.90;9.10;;;1.90;60.40;;;;;;4971044;28;20183;-74
2022/03/01 00:53:17;;;;;;;18.97;9.20;;;1.90;60.60;;;;;;4974424;28;20183;-75
2022/03/01 00:55:43;;;;;;;23.70;10.17;;;1.90;60.70;;;;;;4973816;28;20286;-75
2022/03/01 00:58:08;;;;;;;23.03;9.20;;;1.80;60.90;;;;;;4967779;28;20218;-74
2022/03/01 01:00:34;;;;;;;18.17;9.20;;;1.80;61.00;;;;;;4970065;28;20242;-75
2022/03/01 01:03:01;;;;;;;19.45;8.98;;;1.80;61.20;;;;;;4967828;28;20281;-74
2022/03/01 01:05:27;;;;;;;19.45;9.80;;;1.80;61.50;;;;;;4972285;28;20208;-73
2022/03/01 01:07:53;;;;;;;22.63;9.43;;;1.80;61.50;;;;;;4975219;28;20211;-75
2022/03/01 01:10:19;;;;;;;27.75;10.05;;;1.70;61.70;;;;;;4980352;28;20183;-75
2022/03/01 01:12:46;;;;;;;20.42;9.80;;;1.70;62.20;;;;;;4975699;28;20642;-74
2022/03/01 01:15:14;;;;;;;23.02;10.85;;;1.60;62.50;;;;;;4973512;28;20242;-74
2022/03/01 01:17:39;;;;;;;27.38;10.90;;;1.60;62.80;;;;;;4972887;28;20211;-75
2022/03/01 01:20:06;;;;;;;20.87;9.53;;;1.60;62.90;;;;;;4973288;28;20202;-74
2022/03/01 01:22:41;;;;;;;25.35;10.50;;;1.60;63.10;;;;;;4969982;28;20439;-73
2022/03/01 01:25:22;;;;;;;20.92;10.05;;;1.50;63.20;;;;;;4966324;28;20290;-74
2022/03/01 01:27:51;;;;;;;20.73;10.70;;;1.40;63.80;;;;;;4969761;28;20218;-74
2022/03/01 01:30:21;;;;;;;22.13;9.75;;;1.40;64.10;;;;;;4974123;28;20175;-75
2022/03/01 01:32:48;;;;;;;18.60;9.30;;;1.40;64.50;;;;;;4974986;28;20183;-73
2022/03/01 01:35:16;;;;;;;21.25;9.35;;;1.30;64.70;;;;;;4972968;28;20176;-73
2022/03/01 01:37:42;;;;;;;24.10;9.70;;;1.30;65.10;;;;;;4970213;28;20688;-75
2022/03/01 01:40:11;;;;;;;18.10;9.60;;;1.30;65.40;;;;;;4972327;28;20643;-73
2022/03/01 01:42:37;;;;;;;19.48;8.70;;;1.20;65.70;;;;;;4968570;28;20187;-74
2022/03/01 01:45:04;;;;;;;24.13;9.47;;;1.10;66.10;;;;;;4966640;28;20187;-75
2022/03/01 01:47:30;;;;;;;23.60;9.27;;;1.00;66.10;;;;;;4966861;28;21062;-72
2022/03/01 01:49:56;;;;;;;19.03;9.10;;;0.90;66.70;;;;;;4973886;28;20187;-75
2022/03/01 01:52:23;;;;;;;22.13;9.20;;;0.80;67.20;;;;;;4972855;28;20249;-74
2022/03/01 01:54:49;;;;;;;16.73;9.77;;;0.80;67.60;;;;;;4969493;28;20197;-76
2022/03/01 01:57:19;;;;;;;17.50;9.50;;;0.70;67.60;;;;;;4973969;28;20651;-75
2022/03/01 01:59:47;;;;;;;18.80;9.13;;;0.70;67.90;;;;;;4972227;28;20198;-74
2022/03/01 02:02:14;;;;;;;24.17;10.20;;;0.70;68.30;;;;;;4969399;28;20186;-75
2022/03/01 02:04:40;;;;;;;19.77;10.20;;;0.70;68.90;;;;;;4979124;28;20195;-75
2022/03/01 02:07:07;;;;;;;19.48;10.40;;;0.60;68.90;;;;;;4974937;28;20214;-73
2022/03/01 02:09:33;;;;;;;21.23;9.07;;;0.60;69.20;;;;;;4973471;28;20545;-75
2022/03/01 02:12:00;;;;;;;22.70;10.50;;;0.50;69.70;;;;;;4973751;28;20555;-75
2022/03/01 02:14:26;;;;;;;22.90;10.80;;;0.50;69.90;;;;;;4971140;28;20180;-74
2022/03/01 02:16:52;;;;;;;21.60;9.67;;;0.40;70.10;;;;;;4979478;28;20180;-75
2022/03/01 02:19:18;;;;;;;22.40;10.02;;;0.30;70.10;;;;;;4969725;28;20191;-74
2022/03/01 02:21:52;;;;;;;24.03;10.60;;;0.30;70.20;;;;;;4971621;28;20251;-75
2022/03/01 02:24:19;;;;;;;21.33;8.95;;;0.30;70.40;;;;;;4968572;28;21135;-74
2022/03/01 02:26:45;;;;;;;22.33;9.88;;;0.40;70.20;;;;;;4971952;28;20191;-75
2022/03/01 02:29:12;;;;;;;25.17;11.10;;;0.40;70.10;;;;;;4967701;28;20207;-73
2022/03/01 02:31:38;;;;;;;20.50;9.93;;;0.40;69.90;;;;;;4968228;28;20188;-74
2022/03/01 02:34:04;;;;;;;22.37;10.27;;;0.40;69.80;;;;;;4971798;28;20649;-75
2022/03/01 02:36:30;;;;;;;22.90;10.07;;;0.50;69.80;;;;;;4968202;28;20426;-74
2022/03/01 02:38:57;;;;;;;20.60;9.23;;;0.50;69.80;;;;;;4972474;28;20215;-75
2022/03/01 02:41:24;;;;;;;18.92;10.00;;;0.50;69.70;;;;;;4972337;28;20646;-75
2022/03/01 02:43:50;;;;;;;20.70;9.32;;;0.50;69.70;;;;;;4980259;28;20238;-76
2022/03/01 02:46:16;;;;;;;23.48;9.93;;;0.50;69.70;;;;;;4975951;28;20236;-75
2022/03/01 02:48:42;;;;;;;20.63;10.68;;;0.50;69.40;;;;;;4968726;28;20204;-74
2022/03/01 02:51:08;;;;;;;21.60;9.87;;;0.50;69.50;;;;;;4974004;28;20188;-76
2022/03/01 02:53:36;;;;;;;22.52;9.25;;;0.50;69.10;;;;;;4970495;28;20195;-74
2022/03/01 02:56:04;;;;;;;24.92;10.32;;;0.50;69.40;;;;;;4966785;28;20182;-74
2022/03/01 02:58:30;;;;;;;21.52;11.15;;;0.50;68.90;;;;;;4966592;28;20262;-74
2022/03/01 03:00:57;;;;;;;22.10;10.13;;;0.50;69.10;;;;;;4983403;28;20207;-75
2022/03/01 03:03:22;;;;;;;21.88;10.32;;;0.50;68.90;;;;;;4967195;28;20760;-75
2022/03/01 03:05:48;;;;;;;24.20;10.63;;;0.50;68.90;;;;;;4968159;28;20188;-75
2022/03/01 03:08:14;;;;;;;23.90;10.47;;;0.40;68.90;;;;;;4975568;28;20231;-76
2022/03/01 03:10:39;;;;;;;21.50;9.90;;;0.40;68.90;;;;;;4979398;28;20179;-74
2022/03/01 03:13:06;;;;;;;20.07;9.70;;;0.30;69.10;;;;;;4972708;28;20178;-75
2022/03/01 03:15:32;;;;;;;21.90;10.13;;;0.30;69.40;;;;;;4975306;28;20181;-74
2022/03/01 03:17:58;;;;;;;31.30;10.77;;;0.40;69.10;;;;;;4975410;28;20219;-74
2022/03/01 03:20:24;;;;;;;26.90;11.20;;;0.50;68.90;;;;;;4972849;28;20203;-75
2022/03/01 03:22:50;;;;;;;20.17;10.10;;;0.40;68.90;;;;;;4985997;28;20183;-76
2022/03/01 03:25:16;;;;;;;17.77;8.90;;;0.40;68.80;;;;;;4982605;28;20498;-74
2022/03/01 03:27:42;;;;;;;22.97;9.80;;;0.40;68.80;;;;;;4972056;28;20250;-74
2022/03/01 03:30:09;;;;;;;21.77;10.18;;;0.40;68.80;;;;;;4974121;28;20422;-73
2022/03/01 03:32:35;;;;;;;20.58;9.40;;;0.50;68.60;;;;;;4981179;28;20664;-75
2022/03/01 03:35:03;;;;;;;20.53;9.47;;;0.50;68.50;;;;;;4971493;28;20187;-76
2022/03/01 03:37:28;;;;;;;23.98;9.68;;;0.50;68.50;;;;;;4979049;28;20202;-73
2022/03/01 03:39:54;;;;;;;25.43;10.07;;;0.50;68.50;;;;;;4996846;28;20183;-75
2022/03/01 03:42:20;;;;;;;22.57;11.90;;;0.40;68.60;;;;;;4986848;28;20193;-73
2022/03/01 03:44:46;;;;;;;25.43;9.70;;;0.40;68.50;;;;;;4984620;28;20199;-74
2022/03/01 03:47:12;;;;;;;19.80;9.35;;;0.40;68.50;;;;;;4984221;28;20226;-74
2022/03/01 03:49:38;;;;;;;24.40;10.00;;;0.40;68.50;;;;;;4983551;28;20187;-73
2022/03/01 03:52:06;;;;;;;20.90;10.30;;;0.40;68.30;;;;;;4982393;28;20273;-76
2022/03/01 03:54:32;;;;;;;26.73;10.60;;;0.40;68.20;;;;;;4981756;28;20250;-75
2022/03/01 03:56:58;;;;;;;21.25;10.48;;;0.50;67.90;;;;;;4980430;28;20183;-76
2022/03/01 03:59:24;;;;;;;22.08;9.45;;;0.50;67.70;;;;;;4981465;28;20207;-75
2022/03/01 04:01:50;;;;;;;21.80;9.70;;;0.40;67.70;;;;;;4983019;28;20226;-75
2022/03/01 04:04:16;;;;;;;24.90;10.55;;;0.50;67.50;;;;;;4981389;28;20488;-75
2022/03/01 04:06:42;;;;;;;26.55;10.07;;;0.50;67.20;;;;;;4974832;28;20233;-76
2022/03/01 04:09:08;;;;;;;20.40;9.63;;;0.50;67.20;;;;;;4972799;28;20298;-77
2022/03/01 04:11:34;;;;;;;19.73;8.70;;;0.50;67.00;;;;;;4967664;28;20430;-75
2022/03/01 04:14:00;;;;;;;23.50;11.10;;;0.50;67.00;;;;;;4970924;28;20772;-76
2022/03/01 04:16:27;;;;;;;17.65;9.90;;;0.50;66.90;;;;;;4965234;28;20178;-76
2022/03/01 04:18:54;;;;;;;20.70;9.95;;;0.50;66.90;;;;;;4973022;28;20202;-77
2022/03/01 04:21:20;;;;;;;19.73;9.68;;;0.40;67.20;;;;;;4975412;28;20206;-76
2022/03/01 04:23:46;;;;;;;21.10;10.33;;;0.50;67.30;;;;;;4974852;28;20654;-76
2022/03/01 04:26:13;;;;;;;24.30;10.45;;;0.50;67.20;;;;;;4965583;28;20431;-75
2022/03/01 04:28:38;;;;;;;18.35;9.77;;;0.50;67.50;;;;;;4975129;28;20211;-76
2022/03/01 04:31:05;;;;;;;21.40;9.20;;;0.40;67.30;;;;;;4974675;28;20186;-77
2022/03/01 04:33:30;;;;;;;24.02;10.90;;;0.40;67.20;;;;;;4974190;28;20450;-77
2022/03/01 04:35:59;;;;;;;22.90;9.80;;;0.40;67.20;;;;;;4962530;28;20184;-76
2022/03/01 04:38:25;;;;;;;21.33;8.75;;;0.30;67.20;;;;;;4970214;28;20199;-75
2022/03/01 04:40:52;;;;;;;19.00;9.10;;;0.30;67.30;;;;;;4959617;28;20196;-79
2022/03/01 04:43:19;;;;;;;24.80;11.20;;;0.30;67.70;;;;;;4975017;28;20211;-77
2022/03/01 04:45:45;;;;;;;19.42;9.45;;;0.30;67.70;;;;;;4968642;28;20184;-76
2022/03/01 04:48:11;;;;;;;17.95;9.15;;;0.30;67.70;;;;;;4973464;28;20219;-75
2022/03/01 04:50:37;;;;;;;20.10;9.70;;;0.30;67.60;;;;;;4963450;28;20600;-76
2022/03/01 04:53:03;;;;;;;20.80;9.97;;;0.30;67.50;;;;;;4972922;28;20263;-77
2022/03/01 04:55:29;;;;;;;28.23;12.50;;;0.20;67.60;;;;;;4973018;28;20545;-77
2022/03/01 04:57:55;;;;;;;22.73;9.23;;;0.20;67.70;;;;;;4974897;28;20219;-76
2022/03/01 05:00:21;;;;;;;19.00;10.50;;;0.10;67.60;;;;;;4975027;28;20842;-76
2022/03/01 05:02:47;;;;;;;26.80;10.57;;;0.00;69.10;;;;;;4974583;28;20445;-77
2022/03/01 05:05:15;;;;;;;19.92;9.32;;;0.00;69.70;;;;;;4971028;28;20588;-77
2022/03/01 05:07:46;;;;;;;25.90;10.73;;;-0.10;70.10;;;;;;4966142;28;20222;-77
2022/03/01 05:10:17;;;;;;;28.65;9.98;;;-0.10;70.10;;;;;;4961611;28;20204;-77
2022/03/01 05:12:49;;;;;;;23.98;10.25;;;-0.20;70.40;;;;;;4974089;28;20273;-77
2022/03/01 05:15:16;;;;;;;26.35;11.35;;;-0.20;70.40;;;;;;4969289;28;20212;-77
2022/03/01 05:17:43;;;;;;;22.88;10.90;;;-0.20;70.40;;;;;;4970353;28;20210;-76
2022/03/01 05:20:09;;;;;;;26.77;11.30;;;-0.20;70.40;;;;;;4965937;28;20230;-76
2022/03/01 05:22:36;;;;;;;24.27;10.55;;;-0.20;70.50;;;;;;4968677;28;20199;-76
2022/03/01 05:25:04;;;;;;;23.63;10.23;;;-0.20;70.40;;;;;;4964537;28;20195;-76
2022/03/01 05:27:30;;;;;;;19.52;9.82;;;-0.20;69.90;;;;;;4973272;28;20693;-76
2022/03/01 05:29:56;;;;;;;22.70;10.80;;;-0.20;69.90;;;;;;4974102;28;20263;-75
2022/03/01 05:32:21;;;;;;;22.67;10.13;;;-0.30;69.70;;;;;;4970639;28;20187;-76
2022/03/01 05:34:47;;;;;;;24.07;10.23;;;-0.30;69.50;;;;;;4975791;28;20430;-77
2022/03/01 05:37:13;;;;;;;18.20;9.17;;;-0.30;69.70;;;;;;4968435;28;20261;-76
2022/03/01 05:39:39;;;;;;;24.30;10.60;;;-0.30;69.80;;;;;;4970155;28;20183;-76
2022/03/01 05:42:05;;;;;;;22.63;11.00;;;-0.30;70.70;;;;;;4972372;28;20222;-76
2022/03/01 05:44:30;;;;;;;23.77;10.67;;;-0.40;71.60;;;;;;4969428;28;20418;-75
2022/03/01 05:46:56;;;;;;;28.47;10.70;;;-0.40;71.70;;;;;;4964524;28;20445;-76
2022/03/01 05:49:22;;;;;;;27.25;11.27;;;-0.50;71.70;;;;;;4973284;28;20257;-76
2022/03/01 05:51:48;;;;;;;22.53;10.10;;;-0.60;71.80;;;;;;4970981;28;20203;-77
2022/03/01 05:54:14;;;;;;;20.10;10.60;;;-0.60;72.00;;;;;;4975784;28;20215;-76
2022/03/01 05:56:40;;;;;;;25.50;10.97;;;-0.60;72.10;;;;;;4974722;28;20841;-74
2022/03/01 05:59:05;;;;;;;20.70;9.53;;;-0.60;72.10;;;;;;4974461;28;20455;-74
2022/03/01 06:01:31;;;;;;;22.90;10.93;;;-0.60;72.10;;;;;;4973086;28;20669;-76
2022/03/01 06:03:57;;;;;;;22.57;10.17;;;-0.60;71.60;;;;;;4977519;28;20689;-72
2022/03/01 06:06:22;;;;;;;23.03;9.80;;;-0.60;71.60;;;;;;4978979;28;20538;-73
2022/03/01 06:08:48;;;;;;;23.53;10.57;;;-0.60;71.40;;;;;;4975163;28;20222;-71
2022/03/01 06:11:14;;;;;;;25.33;10.37;;;-0.70;71.30;;;;;;4974909;28;20179;-74
2022/03/01 06:13:40;;;;;;;18.90;10.50;;;-0.70;71.30;;;;;;4974510;28;20619;-72
2022/03/01 06:16:06;;;;;;;28.03;10.10;;;-0.70;71.10;;;;;;4973909;28;20502;-78
2022/03/01 06:18:32;;;;;;;28.50;11.63;;;-0.70;71.30;;;;;;4974911;28;20258;-76
2022/03/01 06:20:58;;;;;;;25.90;10.70;;;-0.70;71.70;;;;;;4976306;28;20195;-76
2022/03/01 06:23:25;;;;;;;28.92;10.93;;;-0.70;72.30;;;;;;4980060;28;20182;-76
2022/03/01 06:25:50;;;;;;;21.33;10.77;;;-0.70;72.40;;;;;;4988665;28;20186;-75
2022/03/01 06:28:17;;;;;;;24.70;10.87;;;-0.70;72.40;;;;;;4978388;28;20233;-76
2022/03/01 06:30:42;;;;;;;20.17;10.43;;;-0.70;72.60;;;;;;4977438;28;20184;-79
2022/03/01 06:33:08;;;;;;;22.73;11.10;;;-0.60;72.60;;;;;;4986100;28;20189;-76
2022/03/01 06:35:34;;;;;;;21.23;11.43;;;-0.60;72.30;;;;;;4982654;28;20468;-77
2022/03/01 06:38:00;;;;;;;25.37;11.53;;;-0.60;72.30;;;;;;4979614;28;20451;-75
2022/03/01 06:40:28;;;;;;;25.05;11.57;;;-0.60;72.30;;;;;;4976254;28;20434;-77
2022/03/01 06:42:55;;;;;;;23.85;10.82;;;-0.60;71.80;;;;;;4977651;28;20529;-77
2022/03/01 06:45:21;;;;;;;28.23;11.30;;;-0.60;71.00;;;;;;4979097;28;20277;-79
2022/03/01 06:47:47;;;;;;;22.38;10.60;;;-0.50;70.50;;;;;;4972114;28;20772;-77
2022/03/01 06:50:14;;;;;;;24.97;11.00;;;-0.60;70.70;;;;;;4973982;28;20234;-77
2022/03/01 06:52:39;;;;;;;24.65;11.25;;;-0.50;71.00;;;;;;4982139;28;20429;-76
2022/03/01 06:55:07;;;;;;;27.63;11.40;;;-0.50;70.70;;;;;;4979956;28;20175;-77
2022/03/01 06:57:33;;;;;;;20.80;10.25;;;-0.40;70.50;;;;;;4978617;28;20213;-77
2022/03/01 06:59:59;;;;;;;27.13;12.00;;;-0.40;70.20;;;;;;4981833;28;20219;-76
2022/03/01 07:02:28;;;;;;;22.50;11.80;;;-0.40;69.80;;;;;;4975715;28;20190;-77
2022/03/01 07:04:56;;;;;;;37.85;12.70;;;-0.30;69.80;;;;;;4963749;28;20195;-77
2022/03/01 07:07:23;;;;;;;25.15;11.05;;;-0.20;68.90;;;;;;4974322;28;20199;-77
2022/03/01 07:09:49;;;;;;;22.33;10.85;;;0.00;67.70;;;;;;4979398;28;20188;-77
2022/03/01 07:12:15;;;;;;;27.70;12.85;;;0.10;66.40;;;;;;4971449;28;20179;-76
2022/03/01 07:14:41;;;;;;;25.57;10.63;;;0.10;66.30;;;;;;4967480;28;20279;-77
2022/03/01 07:17:07;;;;;;;21.43;10.93;;;0.20;66.30;;;;;;4966043;28;20414;-76
2022/03/01 07:19:32;;;;;;;29.07;11.80;;;0.20;66.10;;;;;;4970595;28;20683;-77
2022/03/01 07:21:58;;;;;;;24.43;11.57;;;0.20;66.30;;;;;;4973491;28;20431;-76
2022/03/01 07:24:24;;;;;;;20.50;10.07;;;0.20;66.30;;;;;;4975158;28;20187;-77
2022/03/01 07:26:50;;;;;;;20.93;10.67;;;0.20;66.30;;;;;;4973297;28;20191;-76
2022/03/01 07:29:16;;;;;;;26.43;11.10;;;0.30;66.10;;;;;;4963962;28;20907;-77
2022/03/01 07:31:42;;;;;;;23.17;11.15;;;0.40;65.40;;;;;;4964372;28;20206;-77
2022/03/01 07:34:08;;;;;;;20.60;9.67;;;0.50;64.80;;;;;;4961501;28;20180;-77
2022/03/01 07:36:34;;;;;;;23.07;10.97;;;0.60;63.80;;;;;;4963887;28;20267;-77
2022/03/01 07:38:59;;;;;;;26.88;11.63;;;0.60;63.40;;;;;;4969340;28;20463;-77
2022/03/01 07:41:25;;;;;;;24.70;11.10;;;0.70;62.60;;;;;;4965549;28;20186;-76
2022/03/01 07:43:51;;;;;;;29.70;11.53;;;0.70;61.70;;;;;;4967205;28;20265;-77
2022/03/01 07:46:17;;;;;;;27.03;10.07;;;0.80;61.70;;;;;;4965566;28;20187;-78
2022/03/01 07:48:43;;;;;;;21.47;10.67;;;0.80;61.60;;;;;;4970913;28;20470;-78
2022/03/01 07:51:10;;;;;;;16.05;8.98;;;0.90;61.30;;;;;;4972880;28;20222;-77
2022/03/01 07:53:36;;;;;;;19.50;10.50;;;0.90;60.70;;;;;;4968574;28;20187;-79
2022/03/01 07:56:01;;;;;;;25.20;10.90;;;0.90;61.00;;;;;;4963711;28;20184;-78
2022/03/01 07:58:27;;;;;;;17.97;9.37;;;0.90;60.30;;;;;;4965746;28;20229;-77
2022/03/01 08:00:53;;;;;;;20.17;9.73;;;0.90;60.30;;;;;;4969387;28;20430;-77
2022/03/01 08:03:19;;;;;;;19.03;9.93;;;1.00;60.70;;;;;;4962029;28;21343;-77
2022/03/01 08:05:45;;;;;;;25.23;10.10;;;1.00;60.30;;;;;;4966876;28;20198;-75
2022/03/01 08:08:11;;;;;;;22.40;10.27;;;1.10;60.00;;;;;;4966130;28;20222;-76
2022/03/01 08:10:37;;;;;;;23.83;10.20;;;1.10;59.90;;;;;;4962683;28;20886;-77
2022/03/01 08:13:03;;;;;;;26.53;10.67;;;1.10;59.70;;;;;;4977265;28;20223;-77
2022/03/01 08:15:29;;;;;;;22.80;10.30;;;1.20;59.50;;;;;;4966719;28;20450;-76
2022/03/01 08:17:57;;;;;;;21.60;10.27;;;1.30;59.30;;;;;;4963519;28;20271;-78
2022/03/01 08:20:24;;;;;;;20.60;10.13;;;1.30;59.20;;;;;;4965621;28;20183;-78
2022/03/01 08:22:49;;;;;;;22.48;10.10;;;1.30;59.20;;;;;;4966549;28;20187;-77
2022/03/01 08:25:16;;;;;;;28.20;10.93;;;1.40;59.10;;;;;;4974458;28;20202;-77
2022/03/01 08:27:42;;;;;;;28.42;10.77;;;1.40;58.50;;;;;;4967045;28;20686;-77
2022/03/01 08:30:08;;;;;;;21.40;11.07;;;1.40;58.20;;;;;;4963773;28;20194;-77
2022/03/01 08:32:34;;;;;;;30.00;10.68;;;1.50;57.80;;;;;;4961247;28;20183;-77
2022/03/01 08:35:00;;;;;;;19.90;10.47;;;1.50;58.10;;;;;;4969677;28;20196;-78
2022/03/01 08:37:26;;;;;;;16.97;9.03;;;1.60;57.30;;;;;;4961523;28;20439;-77
2022/03/01 08:39:52;;;;;;;18.90;9.80;;;1.60;57.20;;;;;;4967738;28;20183;-77
2022/03/01 08:42:18;;;;;;;19.13;10.18;;;1.70;57.00;;;;;;4965941;28;20419;-77
2022/03/01 08:44:44;;;;;;;27.17;11.13;;;1.70;56.90;;;;;;4968609;28;20182;-76
2022/03/01 08:47:10;;;;;;;27.92;11.60;;;1.80;56.60;;;;;;4971585;28;20454;-77
2022/03/01 08:49:36;;;;;;;22.23;11.27;;;1.90;56.40;;;;;;4968441;28;20202;-77
2022/03/01 08:52:02;;;;;;;23.67;10.77;;;2.00;56.00;;;;;;4960797;28;20188;-78
2022/03/01 08:54:28;;;;;;;23.23;9.70;;;2.10;55.80;;;;;;4970871;28;20642;-76
2022/03/01 08:56:53;;;;;;;28.57;10.17;;;2.10;55.30;;;;;;4971927;28;20442;-76
2022/03/01 08:59:20;;;;;;;25.63;10.10;;;2.20;55.40;;;;;;4965391;28;20633;-75
2022/03/01 09:01:45;;;;;;;24.83;12.10;;;2.20;55.30;;;;;;4969791;28;20215;-77
2022/03/01 09:04:11;;;;;;;24.50;9.60;;;2.20;54.80;;;;;;4972527;28;20183;-77
2022/03/01 09:06:37;;;;;;;21.20;9.50;;;2.30;54.80;;;;;;4963796;28;20195;-77
2022/03/01 09:09:03;;;;;;;22.23;9.87;;;2.40;54.10;;;;;;4967696;28;20594;-76
2022/03/01 09:11:29;;;;;;;18.10;9.03;;;2.40;53.80;;;;;;4972112;28;20190;-76
2022/03/01 09:13:54;;;;;;;25.63;10.30;;;2.40;54.00;;;;;;4964828;28;20507;-77
2022/03/01 09:16:20;;;;;;;20.90;9.97;;;2.50;53.60;;;;;;4967723;28;20423;-77
2022/03/01 09:18:46;;;;;;;22.00;10.60;;;2.50;53.30;;;;;;4968320;28;20203;-77
2022/03/01 09:21:12;;;;;;;17.60;9.50;;;2.60;53.30;;;;;;4965897;28;20957;-77
2022/03/01 09:23:38;;;;;;;25.83;10.07;;;2.60;52.80;;;;;;4967009;28;20318;-77
2022/03/01 09:26:03;;;;;;;22.17;10.20;;;2.60;53.00;;;;;;4972864;28;20431;-78
2022/03/01 09:28:29;;;;;;;25.27;10.20;;;2.70;52.80;;;;;;4972592;28;20493;-77
2022/03/01 09:30:55;;;;;;;17.17;10.00;;;2.70;52.60;;;;;;4964465;28;20311;-76
2022/03/01 09:33:21;;;;;;;18.10;9.97;;;2.80;52.50;;;;;;4961511;28;20183;-77
2022/03/01 09:35:47;;;;;;;22.87;10.10;;;2.90;51.70;;;;;;4962527;28;20420;-76
2022/03/01 09:38:13;;;;;;;38.58;10.95;;;2.90;51.00;;;;;;4964950;28;20955;-77
2022/03/01 09:40:39;;;;;;;20.63;9.97;;;2.90;51.40;;;;;;4959971;28;20187;-77
2022/03/01 09:43:05;;;;;;;26.00;9.10;;;2.90;51.40;;;;;;4965203;28;20522;-77
2022/03/01 09:45:31;;;;;;;21.13;9.83;;;3.00;51.40;;;;;;4965053;28;20880;-76
2022/03/01 09:47:56;;;;;;;15.00;8.80;;;3.10;51.60;;;;;;4974079;28;20294;-78
2022/03/01 09:50:27;;;;;;;23.63;10.10;;;3.30;50.70;;;;;;4975308;28;20433;-77
2022/03/01 09:52:56;;;;;;;21.90;10.07;;;3.40;50.50;;;;;;4975408;28;20183;-78
2022/03/01 09:55:22;;;;;;;16.83;9.40;;;3.50;50.30;;;;;;4975370;28;20470;-77
2022/03/01 09:57:47;;;;;;;22.77;9.20;;;3.60;49.80;;;;;;4973334;28;20514;-76
2022/03/01 10:00:13;;;;;;;19.43;10.23;;;3.70;49.50;;;;;;4974074;28;20454;-77
2022/03/01 10:02:42;;;;;;;20.00;9.80;;;3.70;49.80;;;;;;4981451;28;20967;-76
2022/03/01 10:05:09;;;;;;;17.97;9.80;;;3.80;49.80;;;;;;4973820;28;20426;-77
2022/03/01 10:07:35;;;;;;;20.73;9.23;;;3.90;49.30;;;;;;4973060;28;20474;-78
2022/03/01 10:10:09;;;;;;;22.00;10.23;;;4.00;48.90;;;;;;4969420;28;20431;-76
2022/03/01 10:12:36;;;;;;;19.33;9.27;;;4.10;48.70;;;;;;4963353;28;20429;-77
2022/03/01 10:15:07;;;;;;;22.13;9.50;;;4.30;47.90;;;;;;4968660;28;20420;-77
2022/03/01 10:17:43;;;;;;;15.73;8.90;;;4.30;47.40;;;;;;4964409;28;20534;-76
2022/03/01 10:20:15;;;;;;;20.97;8.90;;;4.40;47.00;;;;;;4960807;28;20521;-75
2022/03/01 10:22:52;;;;;;;15.90;7.90;;;4.40;46.30;;;;;;4970368;28;20427;-76
2022/03/01 10:25:24;;;;;;;15.50;8.43;;;4.40;46.90;;;;;;4960744;28;20493;-75
2022/03/01 10:27:52;;;;;;;20.10;9.57;;;4.40;46.20;;;;;;4974848;28;20467;-76
2022/03/01 10:30:27;;;;;;;17.23;9.13;;;4.50;46.50;;;;;;4979780;28;20792;-76
2022/03/01 10:33:06;;;;;;;20.53;10.30;;;4.50;46.30;;;;;;4972837;28;20425;-76
2022/03/01 10:35:32;;;;;;;18.10;10.07;;;4.60;46.60;;;;;;4972079;28;20435;-77
2022/03/01 10:38:01;;;;;;;19.60;10.40;;;4.60;46.10;;;;;;4974882;28;20648;-76
2022/03/01 10:40:27;;;;;;;21.07;10.40;;;4.70;45.70;;;;;;4977518;28;20423;-76
2022/03/01 10:43:13;;;;;;;22.73;9.13;;;4.80;45.90;;;;;;4969283;28;20486;-76
2022/03/01 10:45:50;;;;;;;18.47;9.27;;;4.90;45.80;;;;;;4975209;28;20496;-76
2022/03/01 10:48:29;;;;;;;19.20;10.20;;;5.20;45.00;;;;;;4978483;28;20592;-77
2022/03/01 10:51:08;;;;;;;20.63;9.37;;;5.90;43.50;;;;;;4972610;28;20446;-76
2022/03/01 10:53:46;;;;;;;19.27;8.77;;;6.40;41.60;;;;;;4974309;28;20936;-76
2022/03/01 10:56:14;;;;;;;15.77;9.30;;;6.90;40.40;;;;;;4966613;28;20581;-77
2022/03/01 10:58:42;;;;;;;15.67;8.73;;;7.40;39.50;;;;;;4970070;28;20459;-77
2022/03/01 11:01:12;;;;;;;15.60;8.13;;;7.60;37.20;;;;;;4982076;28;20831;-76
2022/03/01 11:03:38;;;;;;;19.00;9.30;;;7.70;37.40;;;;;;4963152;28;20522;-77
2022/03/01 11:06:05;;;;;;;16.17;8.57;;;7.70;37.60;;;;;;4972393;28;20422;-77
2022/03/01 11:08:37;;;;;;;16.10;8.10;;;7.80;37.60;;;;;;4971661;28;20481;-77
2022/03/01 11:11:07;;;;;;;16.50;9.40;;;7.90;37.40;;;;;;4973385;28;20438;-77
2022/03/01 11:13:40;;;;;;;18.07;9.50;;;8.10;36.80;;;;;;4974012;28;20482;-77
2022/03/01 11:16:44;;;;;;;18.10;8.57;;;8.30;36.30;;;;;;4967793;28;20438;-76
2022/03/01 11:19:10;;;;;;;25.30;12.37;;;8.50;35.10;;;;;;4970532;28;20525;-77
2022/03/01 11:21:40;;;;;;;15.80;9.20;;;8.80;35.10;;;;;;4967063;28;20437;-76
2022/03/01 11:24:09;;;;;;;14.83;8.20;;;9.00;35.10;;;;;;4969873;28;20434;-77
2022/03/01 11:26:37;;;;;;;15.67;8.87;;;8.90;33.90;;;;;;4968434;28;20430;-77
2022/03/01 11:29:09;;;;;;;21.10;9.60;;;8.70;34.30;;;;;;4979652;28;20482;-77
2022/03/01 11:31:35;;;;;;;17.00;8.50;;;8.70;34.10;;;;;;4973146;28;20445;-76
2022/03/01 11:34:12;;;;;;;21.23;8.90;;;9.00;34.10;;;;;;4965699;28;20424;-78
2022/03/01 11:36:38;;;;;;;14.30;7.80;;;9.30;33.90;;;;;;4969325;28;20394;-77
2022/03/01 11:39:13;;;;;;;16.40;8.70;;;9.80;32.80;;;;;;4962879;28;20553;-77
2022/03/01 11:41:45;;;;;;;16.93;8.83;;;10.10;31.10;;;;;;4965673;28;20191;-76
2022/03/01 11:44:12;;;;;;;16.70;8.80;;;9.80;31.20;;;;;;4960818;28;20525;-76
2022/03/01 11:46:40;;;;;;;16.33;8.43;;;9.30;31.50;;;;;;4963451;28;20438;-75
2022/03/01 11:49:07;;;;;;;13.23;7.60;;;9.10;31.60;;;;;;4971515;28;21015;-78
2022/03/01 11:51:39;;;;;;;14.33;7.67;;;8.60;31.30;;;;;;4969553;28;20517;-77
2022/03/01 11:54:11;;;;;;;14.73;8.13;;;8.60;32.30;;;;;;4971170;28;20441;-77
2022/03/01 11:56:39;;;;;;;15.10;7.90;;;9.10;30.70;;;;;;4971497;28;20506;-77
2022/03/01 11:59:08;;;;;;;30.93;9.10;;;9.60;28.60;;;;;;4971093;28;20524;-77
2022/03/01 12:01:34;;;;;;;15.43;8.07;;;10.10;28.30;;;;;;4968167;28;20430;-75
2022/03/01 12:04:04;;;;;;;13.30;7.63;;;10.00;27.30;;;;;;4969233;28;20434;-76
2022/03/01 12:06:32;;;;;;;13.97;7.33;;;9.70;27.50;;;;;;4967368;28;20427;-77
2022/03/01 12:09:00;;;;;;;13.30;7.70;;;9.70;28.30;;;;;;4969527;28;21108;-77
2022/03/01 12:11:36;;;;;;;13.93;7.57;;;9.40;28.60;;;;;;4961594;28;20436;-77
2022/03/01 12:14:17;;;;;;;14.73;7.83;;;9.50;29.00;;;;;;4968755;28;20465;-76
2022/03/01 12:16:43;;;;;;;13.50;7.30;;;9.60;29.50;;;;;;4967611;28;20415;-76
2022/03/01 12:19:22;;;;;;;18.43;8.93;;;9.90;29.10;;;;;;4964037;28;20449;-76
2022/03/01 12:21:55;;;;;;;20.83;10.13;;;9.70;29.80;;;;;;4959047;28;20454;-76
2022/03/01 12:24:23;;;;;;;13.90;7.73;;;9.30;30.80;;;;;;4963796;28;20423;-77
2022/03/01 12:26:57;;;;;;;15.63;8.20;;;9.10;31.20;;;;;;4961048;28;20423;-75
2022/03/01 12:29:26;;;;;;;16.23;8.47;;;8.80;31.30;;;;;;4964532;28;20607;-76
2022/03/01 12:32:06;;;;;;;17.03;8.90;;;8.90;32.00;;;;;;4970599;28;20433;-77
2022/03/01 12:34:35;;;;;;;18.07;8.40;;;8.90;32.00;;;;;;4961037;28;20445;-77
2022/03/01 12:37:03;;;;;;;19.40;9.17;;;8.60;32.70;;;;;;4970254;28;20514;-77
2022/03/01 12:39:29;;;;;;;17.53;8.90;;;8.60;32.70;;;;;;4967676;28;20485;-77
2022/03/01 12:41:57;;;;;;;15.77;8.53;;;8.60;32.40;;;;;;4970697;28;20466;-76